Time;durP1;ratioP1;P1;durP2;ratioP2;P2;SDS_P1;SDS_P2;PMS_P1;PMS_P2;Temp;Humidity;BMP_temperature;BMP_pressure;BME280_temperature;BME280_humidity;BME280_pressure;Samples;Min_cycle;Max_cycle;Signal;HPM_P1;HPM_P2
2023/01/17 00:01:24;;;;;;;2.72;1.20;;;;;;;;;;5001758;28;20036;-87
2023/01/17 00:12:11;;;;;;;3.70;1.10;;;;;;;;;;5016157;28;20159;-88
2023/01/17 00:14:37;;;;;;;2.85;1.17;;;;;;;;;;5029614;28;20037;-87
2023/01/17 00:17:02;;;;;;;2.30;0.98;;;;;;;;;;5011398;28;20040;-88
2023/01/17 01:34:02;;;;;;;3.55;1.23;;;;;;;;;;5049832;28;20047;-86
2023/01/17 01:36:27;;;;;;;3.25;1.20;;;;;;;;;;5034931;28;20032;-86
2023/01/17 01:38:53;;;;;;;2.90;1.30;;;;;;;;;;5030309;28;20040;-89
2023/01/17 01:41:19;;;;;;;2.83;1.30;;;;;;;;;;5040849;28;20028;-89
2023/01/17 01:43:47;;;;;;;2.70;1.20;;;;;;;;;;5030656;28;20046;-88
2023/01/17 01:46:18;;;;;;;3.03;1.38;;;;;;;;;;5040796;28;20503;-88
2023/01/17 01:48:59;;;;;;;2.42;1.20;;;;;;;;;;5029906;28;20078;-87
2023/01/17 01:51:28;;;;;;;3.25;1.10;;;;;;;;;;5046036;28;20456;-88
2023/01/17 01:54:00;;;;;;;3.47;1.35;;;;;;;;;;5035735;28;20488;-90
2023/01/17 01:56:27;;;;;;;3.05;1.20;;;;;;;;;;5046241;28;20037;-88
2023/01/17 01:58:52;;;;;;;4.22;1.30;;;;;;;;;;5021165;28;20978;-89
2023/01/17 02:01:18;;;;;;;3.17;1.48;;;;;;;;;;5045950;28;20029;-89
2023/01/17 02:03:44;;;;;;;2.85;1.20;;;;;;;;;;5031185;28;20033;-85
2023/01/17 02:06:18;;;;;;;4.95;1.23;;;;;;;;;;5044909;28;20555;-85
2023/01/17 02:08:44;;;;;;;3.65;1.35;;;;;;;;;;5063331;28;20120;-89
2023/01/17 02:11:10;;;;;;;3.67;1.58;;;;;;;;;;5050341;28;20093;-87
2023/01/17 02:13:35;;;;;;;4.13;1.45;;;;;;;;;;5046825;28;20085;-89
2023/01/17 02:16:16;;;;;;;3.15;1.38;;;;;;;;;;5029219;28;20036;-88
2023/01/17 02:18:53;;;;;;;4.43;1.17;;;;;;;;;;5031424;28;20072;-88
2023/01/17 02:21:38;;;;;;;3.25;1.50;;;;;;;;;;5036780;28;20496;-89
2023/01/17 02:24:23;;;;;;;3.42;1.45;;;;;;;;;;5064179;28;20607;-89
2023/01/17 02:27:13;;;;;;;3.63;1.48;;;;;;;;;;5044847;28;20487;-86
2023/01/17 02:30:16;;;;;;;3.08;1.20;;;;;;;;;;5038124;28;20131;-88
2023/01/17 02:32:50;;;;;;;3.33;1.50;;;;;;;;;;5046024;28;20036;-87
2023/01/17 02:35:27;;;;;;;3.67;1.50;;;;;;;;;;5024398;28;20098;-88
2023/01/17 02:38:04;;;;;;;2.97;1.33;;;;;;;;;;5046343;28;20495;-91
2023/01/17 02:40:46;;;;;;;4.43;1.48;;;;;;;;;;5045933;28;20443;-90
2023/01/17 02:43:15;;;;;;;3.10;1.38;;;;;;;;;;5034475;28;20063;-87
2023/01/17 02:45:41;;;;;;;2.88;1.30;;;;;;;;;;5034541;28;20072;-88
2023/01/17 02:48:09;;;;;;;4.35;1.20;;;;;;;;;;5030739;28;20110;-87
2023/01/17 02:50:43;;;;;;;3.83;1.70;;;;;;;;;;5027050;28;20028;-90
2023/01/17 02:53:24;;;;;;;2.95;1.20;;;;;;;;;;5036532;28;20067;-89
2023/01/17 02:55:56;;;;;;;2.63;1.02;;;;;;;;;;5044974;28;20686;-87
2023/01/17 02:58:27;;;;;;;3.05;1.20;;;;;;;;;;5029523;28;20429;-90
2023/01/17 03:01:00;;;;;;;3.13;1.17;;;;;;;;;;5028523;28;20044;-88
2023/01/17 03:03:33;;;;;;;3.47;1.40;;;;;;;;;;5062929;28;20508;-89
2023/01/17 03:06:10;;;;;;;3.20;1.40;;;;;;;;;;5028276;28;20563;-89
2023/01/17 03:08:40;;;;;;;5.93;1.15;;;;;;;;;;5030925;28;20056;-90
2023/01/17 03:11:08;;;;;;;3.08;1.30;;;;;;;;;;5018289;28;20037;-88
2023/01/17 03:13:36;;;;;;;2.80;0.90;;;;;;;;;;5029400;28;20037;-89
2023/01/17 03:16:05;;;;;;;1.98;0.95;;;;;;;;;;5027388;28;20525;-88
2023/01/17 03:18:31;;;;;;;2.55;1.08;;;;;;;;;;5042712;28;20067;-87
2023/01/17 03:20:56;;;;;;;2.58;0.88;;;;;;;;;;5031446;28;20044;-90
2023/01/17 03:23:22;;;;;;;2.05;0.80;;;;;;;;;;5029540;28;20035;-89
2023/01/17 03:25:47;;;;;;;1.60;0.77;;;;;;;;;;5033152;28;20630;-88
2023/01/17 03:28:12;;;;;;;1.75;0.77;;;;;;;;;;5030424;28;20037;-89
2023/01/17 03:30:38;;;;;;;1.70;0.80;;;;;;;;;;5045843;28;20506;-88
2023/01/17 03:33:03;;;;;;;1.67;0.80;;;;;;;;;;5031848;28;20047;-88
2023/01/17 03:35:29;;;;;;;1.83;0.70;;;;;;;;;;5029612;28;20033;-87
2023/01/17 03:37:55;;;;;;;1.73;0.70;;;;;;;;;;5066777;28;20051;-86
2023/01/17 03:40:20;;;;;;;1.50;0.70;;;;;;;;;;5048742;28;20032;-89
2023/01/17 03:42:45;;;;;;;2.95;0.82;;;;;;;;;;5048765;28;20044;-87
2023/01/17 03:45:11;;;;;;;2.13;0.60;;;;;;;;;;5048264;28;20483;-86
2023/01/17 03:47:36;;;;;;;2.78;0.70;;;;;;;;;;5049032;28;20036;-87
2023/01/17 03:50:02;;;;;;;1.80;0.60;;;;;;;;;;5049195;28;20283;-87
2023/01/17 03:52:28;;;;;;;1.65;0.60;;;;;;;;;;5032003;28;20035;-88
2023/01/17 03:54:53;;;;;;;1.73;0.80;;;;;;;;;;5032915;28;20040;-87
2023/01/17 03:57:19;;;;;;;0.93;0.43;;;;;;;;;;5032097;28;20115;-85
2023/01/17 03:59:45;;;;;;;1.13;0.50;;;;;;;;;;5048960;28;20815;-88
2023/01/17 04:02:11;;;;;;;1.97;0.70;;;;;;;;;;5032577;28;20029;-89
2023/01/17 04:04:36;;;;;;;1.25;0.50;;;;;;;;;;5036451;28;20282;-89
2023/01/17 04:07:02;;;;;;;1.10;0.40;;;;;;;;;;5048363;28;20030;-87
2023/01/17 04:09:34;;;;;;;1.55;0.60;;;;;;;;;;5048405;28;20530;-88
2023/01/17 04:12:02;;;;;;;2.03;0.55;;;;;;;;;;5032159;28;20071;-88
2023/01/17 04:14:28;;;;;;;1.63;0.60;;;;;;;;;;5066839;28;20046;-86
2023/01/17 04:16:54;;;;;;;1.33;0.50;;;;;;;;;;5031103;28;20098;-86
2023/01/17 04:19:20;;;;;;;1.88;0.63;;;;;;;;;;5033106;28;20159;-85
2023/01/17 04:21:45;;;;;;;1.30;0.60;;;;;;;;;;5031749;28;20127;-86
2023/01/17 04:24:13;;;;;;;1.38;0.50;;;;;;;;;;5048614;28;20128;-85
2023/01/17 04:26:38;;;;;;;1.60;0.60;;;;;;;;;;5048500;28;20044;-85
2023/01/17 04:29:04;;;;;;;1.15;0.52;;;;;;;;;;5014517;28;20968;-84
2023/01/17 04:31:29;;;;;;;1.73;0.70;;;;;;;;;;5011317;28;20040;-84
2023/01/17 04:33:55;;;;;;;1.92;0.60;;;;;;;;;;5017363;28;20104;-85
2023/01/17 04:36:20;;;;;;;1.33;0.50;;;;;;;;;;5010508;28;20044;-85
2023/01/17 04:38:46;;;;;;;1.20;0.40;;;;;;;;;;5028433;28;20593;-84
2023/01/17 04:41:11;;;;;;;1.42;0.52;;;;;;;;;;5016300;28;20067;-86
2023/01/17 04:43:36;;;;;;;1.35;0.50;;;;;;;;;;5011800;28;20527;-85
2023/01/17 04:46:04;;;;;;;0.63;0.30;;;;;;;;;;5011213;28;20337;-84
2023/01/17 04:48:30;;;;;;;0.52;0.30;;;;;;;;;;5011810;28;20068;-84
2023/01/17 04:51:03;;;;;;;1.10;0.50;;;;;;;;;;5026966;28;20045;-84
2023/01/17 04:53:28;;;;;;;1.05;0.47;;;;;;;;;;5001635;28;20595;-84
2023/01/17 04:55:53;;;;;;;1.20;0.50;;;;;;;;;;5010312;28;20064;-83
2023/01/17 04:58:19;;;;;;;0.77;0.43;;;;;;;;;;5011114;28;20033;-83
2023/01/17 05:00:49;;;;;;;0.95;0.45;;;;;;;;;;5027010;28;20037;-85
2023/01/17 05:03:15;;;;;;;0.75;0.40;;;;;;;;;;5015605;28;20484;-85
2023/01/17 05:05:42;;;;;;;1.00;0.50;;;;;;;;;;5010659;28;20521;-84
2023/01/17 05:08:08;;;;;;;1.08;0.50;;;;;;;;;;5027931;28;20472;-84
2023/01/17 05:10:33;;;;;;;1.10;0.50;;;;;;;;;;5026631;28;20043;-84
2023/01/17 05:12:58;;;;;;;0.73;0.40;;;;;;;;;;5000960;28;20061;-85
2023/01/17 05:15:25;;;;;;;1.35;0.65;;;;;;;;;;5012217;28;20067;-83
2023/01/17 05:17:51;;;;;;;0.90;0.50;;;;;;;;;;5013334;28;20538;-82
2023/01/17 05:20:17;;;;;;;0.82;0.50;;;;;;;;;;5024687;28;20104;-82
2023/01/17 05:22:43;;;;;;;1.67;0.60;;;;;;;;;;5032764;28;20037;-84
2023/01/17 05:25:09;;;;;;;1.45;0.60;;;;;;;;;;5010780;28;20525;-84
2023/01/17 05:27:34;;;;;;;1.17;0.63;;;;;;;;;;5016640;28;20539;-85
2023/01/17 05:29:59;;;;;;;1.30;0.68;;;;;;;;;;5026905;28;20052;-85
2023/01/17 05:32:25;;;;;;;1.30;0.60;;;;;;;;;;5026453;28;20037;-84
2023/01/17 05:34:50;;;;;;;1.17;0.60;;;;;;;;;;5027428;28;20036;-85
2023/01/17 05:37:16;;;;;;;1.65;0.75;;;;;;;;;;5042301;28;20503;-84
2023/01/17 05:39:41;;;;;;;1.52;0.70;;;;;;;;;;5026189;28;20048;-84
2023/01/17 05:42:07;;;;;;;1.38;0.68;;;;;;;;;;5021565;28;20392;-84
2023/01/17 05:44:32;;;;;;;1.67;0.80;;;;;;;;;;5026004;28;20029;-84
2023/01/17 05:46:58;;;;;;;1.00;0.65;;;;;;;;;;5026117;28;20118;-84
2023/01/17 05:49:23;;;;;;;1.75;0.73;;;;;;;;;;5021710;28;20040;-84
2023/01/17 05:51:49;;;;;;;1.58;0.75;;;;;;;;;;5042370;28;20076;-84
2023/01/17 05:54:15;;;;;;;1.10;0.50;;;;;;;;;;5027955;28;20060;-84
2023/01/17 05:56:40;;;;;;;1.65;0.70;;;;;;;;;;5042287;28;20528;-84
2023/01/17 05:59:05;;;;;;;1.65;0.80;;;;;;;;;;5026494;28;20040;-84
2023/01/17 06:01:31;;;;;;;1.52;0.80;;;;;;;;;;5024784;28;20053;-85
2023/01/17 06:03:56;;;;;;;1.73;0.80;;;;;;;;;;5020019;28;20044;-85
2023/01/17 06:06:21;;;;;;;1.70;0.77;;;;;;;;;;5041864;28;20086;-85
2023/01/17 06:08:47;;;;;;;1.42;0.63;;;;;;;;;;5043089;28;20048;-84
2023/01/17 06:11:17;;;;;;;1.70;0.80;;;;;;;;;;5025436;28;20450;-84
2023/01/17 06:13:43;;;;;;;1.52;0.80;;;;;;;;;;5042664;28;20072;-85
2023/01/17 06:16:08;;;;;;;1.73;0.90;;;;;;;;;;5025992;28;20060;-85
2023/01/17 06:18:33;;;;;;;1.35;0.70;;;;;;;;;;5026110;28;20037;-85
2023/01/17 06:20:59;;;;;;;1.73;0.70;;;;;;;;;;5025325;28;23194;-85
2023/01/17 06:23:24;;;;;;;2.25;0.90;;;;;;;;;;5042661;28;20407;-85
2023/01/17 06:25:50;;;;;;;2.10;0.80;;;;;;;;;;5025320;28;20033;-86
2023/01/17 06:28:18;;;;;;;1.60;0.70;;;;;;;;;;5042470;28;20045;-85
2023/01/17 06:30:44;;;;;;;1.88;0.88;;;;;;;;;;5024963;28;20056;-81
2023/01/17 06:33:11;;;;;;;2.35;0.98;;;;;;;;;;5042762;28;20051;-81
2023/01/17 06:35:37;;;;;;;2.15;0.90;;;;;;;;;;5042249;28;20120;-83
2023/01/17 06:38:02;;;;;;;2.58;1.20;;;;;;;;;;5042328;28;20151;-84
2023/01/17 06:40:28;;;;;;;1.65;0.77;;;;;;;;;;5024765;28;20446;-84
2023/01/17 06:42:53;;;;;;;2.47;1.10;;;;;;;;;;5043014;28;20041;-84
2023/01/17 06:45:19;;;;;;;2.10;0.90;;;;;;;;;;5041002;28;20437;-83
2023/01/17 06:47:45;;;;;;;2.45;1.00;;;;;;;;;;5042716;28;20074;-84
2023/01/17 06:50:12;;;;;;;2.47;1.00;;;;;;;;;;5028592;28;20036;-82
2023/01/17 06:52:39;;;;;;;2.42;1.15;;;;;;;;;;5022536;28;20041;-84
2023/01/17 06:55:04;;;;;;;2.55;1.30;;;;;;;;;;5026346;28;20061;-84
2023/01/17 06:57:30;;;;;;;2.38;1.00;;;;;;;;;;5033457;28;20709;-84
2023/01/17 06:59:55;;;;;;;3.25;1.17;;;;;;;;;;5044306;28;20071;-84
2023/01/17 07:02:21;;;;;;;3.55;1.20;;;;;;;;;;5029632;28;20041;-84
2023/01/17 07:04:46;;;;;;;2.22;1.05;;;;;;;;;;5038306;28;20068;-84
2023/01/17 07:07:11;;;;;;;2.15;1.00;;;;;;;;;;5029525;28;20029;-83
2023/01/17 07:09:39;;;;;;;2.72;1.00;;;;;;;;;;5023276;28;20452;-85
2023/01/17 07:12:04;;;;;;;;;;;;;;;;;;5042101;28;20036;-85
2023/01/17 07:14:30;;;;;;;2.80;1.00;;;;;;;;;;5034171;28;20199;-85
2023/01/17 07:16:56;;;;;;;2.53;1.10;;;;;;;;;;5023873;28;20044;-84
2023/01/17 07:19:22;;;;;;;2.72;1.33;;;;;;;;;;5027648;28;20116;-84
2023/01/17 07:21:53;;;;;;;2.58;1.10;;;;;;;;;;5036503;28;20028;-84
2023/01/17 07:24:20;;;;;;;2.35;1.20;;;;;;;;;;5027549;28;20029;-85
2023/01/17 07:26:51;;;;;;;2.45;1.17;;;;;;;;;;5017473;28;20127;-84
2023/01/17 07:29:20;;;;;;;2.55;1.20;;;;;;;;;;5029497;28;20051;-84
2023/01/17 07:31:47;;;;;;;2.30;1.10;;;;;;;;;;5026463;28;20045;-84
2023/01/17 07:34:13;;;;;;;2.50;1.30;;;;;;;;;;5026931;28;20485;-86
2023/01/17 07:36:38;;;;;;;2.85;1.15;;;;;;;;;;5010614;28;20041;-85
2023/01/17 07:39:03;;;;;;;2.40;1.23;;;;;;;;;;5019777;28;20056;-84
2023/01/17 07:41:33;;;;;;;2.42;1.27;;;;;;;;;;5039724;28;20037;-84
2023/01/17 07:43:59;;;;;;;2.60;1.40;;;;;;;;;;5045861;28;20056;-85
2023/01/17 07:46:24;;;;;;;2.38;1.17;;;;;;;;;;5027278;28;20033;-85
2023/01/17 07:48:50;;;;;;;2.00;0.90;;;;;;;;;;5028261;28;20116;-85
2023/01/17 07:51:16;;;;;;;2.50;1.15;;;;;;;;;;5028233;28;20052;-84
2023/01/17 07:53:42;;;;;;;3.05;1.08;;;;;;;;;;5031382;28;20037;-85
2023/01/17 07:56:32;;;;;;;3.20;0.90;;;;;;;;;;5030518;28;20060;-86
2023/01/17 07:59:32;;;;;;;2.20;0.90;;;;;;;;;;4997125;28;20052;-87
2023/01/17 08:02:18;;;;;;;2.10;0.93;;;;;;;;;;5029680;28;20041;-85
2023/01/17 08:04:44;;;;;;;2.67;0.95;;;;;;;;;;5031146;28;20037;-86
2023/01/17 08:07:10;;;;;;;1.90;0.90;;;;;;;;;;5026702;28;20106;-84
2023/01/17 08:09:35;;;;;;;1.70;0.80;;;;;;;;;;5025991;28;20045;-83
2023/01/17 08:12:01;;;;;;;2.50;1.00;;;;;;;;;;5040181;28;20037;-83
2023/01/17 08:14:26;;;;;;;2.00;0.85;;;;;;;;;;5025238;28;20037;-84
2023/01/17 08:16:52;;;;;;;3.63;1.15;;;;;;;;;;5019458;28;20045;-84
2023/01/17 08:19:18;;;;;;;2.00;1.00;;;;;;;;;;5027795;28;20044;-84
2023/01/17 08:21:43;;;;;;;2.45;0.90;;;;;;;;;;5043021;28;20033;-84
2023/01/17 08:24:32;;;;;;;1.92;0.73;;;;;;;;;;5028803;28;20036;-84
2023/01/17 08:26:58;;;;;;;2.20;0.95;;;;;;;;;;5013877;28;20329;-85
2023/01/17 08:29:23;;;;;;;2.22;0.90;;;;;;;;;;5032298;28;20032;-85
2023/01/17 08:31:52;;;;;;;2.15;0.80;;;;;;;;;;5047427;28;20035;-85
2023/01/17 08:34:18;;;;;;;1.73;0.80;;;;;;;;;;5048276;28;20024;-85
2023/01/17 08:37:03;;;;;;;2.47;0.90;;;;;;;;;;5046121;28;20511;-85
2023/01/17 08:39:29;;;;;;;1.83;0.80;;;;;;;;;;5025508;28;20107;-85
2023/01/17 08:41:56;;;;;;;1.67;0.77;;;;;;;;;;5024966;28;20527;-85
2023/01/17 08:44:21;;;;;;;2.03;0.88;;;;;;;;;;5027014;28;20041;-85
2023/01/17 08:46:46;;;;;;;2.35;1.00;;;;;;;;;;5008539;28;20111;-85
2023/01/17 08:49:12;;;;;;;2.00;0.80;;;;;;;;;;5026492;28;20128;-85
2023/01/17 08:51:37;;;;;;;1.88;0.77;;;;;;;;;;5008436;28;20078;-84
2023/01/17 08:54:03;;;;;;;1.90;0.80;;;;;;;;;;5008953;28;20064;-85
2023/01/17 08:56:28;;;;;;;1.92;0.90;;;;;;;;;;5022703;28;20127;-86
2023/01/17 08:58:54;;;;;;;1.73;0.73;;;;;;;;;;5027095;28;20047;-85
2023/01/17 09:01:19;;;;;;;2.60;0.77;;;;;;;;;;5024823;28;20434;-85
2023/01/17 09:03:47;;;;;;;1.60;0.70;;;;;;;;;;5042932;28;20527;-85
2023/01/17 09:06:14;;;;;;;1.30;0.63;;;;;;;;;;5006715;28;20056;-85
2023/01/17 09:08:40;;;;;;;1.33;0.60;;;;;;;;;;5027421;28;20045;-84
2023/01/17 09:11:10;;;;;;;1.40;0.70;;;;;;;;;;5025343;28;20037;-83
2023/01/17 09:13:36;;;;;;;2.08;0.70;;;;;;;;;;5009898;28;20041;-84
2023/01/17 09:16:02;;;;;;;1.65;0.73;;;;;;;;;;5010706;28;20033;-85
2023/01/17 09:18:29;;;;;;;1.48;0.68;;;;;;;;;;5027671;28;20043;-86
2023/01/17 09:20:57;;;;;;;1.05;0.55;;;;;;;;;;5035007;28;20500;-85
2023/01/17 09:23:24;;;;;;;1.35;0.65;;;;;;;;;;5027357;28;20033;-86
2023/01/17 09:25:53;;;;;;;1.40;0.55;;;;;;;;;;5046042;28;20086;-84
2023/01/17 09:28:19;;;;;;;1.30;0.60;;;;;;;;;;5050167;28;20047;-83
2023/01/17 09:30:45;;;;;;;0.98;0.47;;;;;;;;;;5045825;28;20032;-85
2023/01/17 09:33:11;;;;;;;1.05;0.57;;;;;;;;;;5034156;28;20158;-83
2023/01/17 09:35:36;;;;;;;1.05;0.55;;;;;;;;;;5033755;28;20035;-84
2023/01/17 09:38:02;;;;;;;1.83;0.60;;;;;;;;;;5046860;28;20032;-84
2023/01/17 09:40:27;;;;;;;0.65;0.30;;;;;;;;;;5063768;28;20035;-84
2023/01/17 09:42:57;;;;;;;1.55;0.60;;;;;;;;;;5047310;28;20040;-83
2023/01/17 09:45:24;;;;;;;0.95;0.50;;;;;;;;;;5045806;28;20036;-84
2023/01/17 09:47:51;;;;;;;2.00;0.60;;;;;;;;;;5047631;28;20055;-84
2023/01/17 09:50:20;;;;;;;1.63;0.60;;;;;;;;;;5024828;28;20033;-84
2023/01/17 09:52:45;;;;;;;1.65;0.60;;;;;;;;;;5065175;28;20047;-84
2023/01/17 09:55:16;;;;;;;2.35;0.63;;;;;;;;;;5029766;28;20537;-84
2023/01/17 09:58:00;;;;;;;0.90;0.40;;;;;;;;;;5046535;28;20041;-84
2023/01/17 10:00:52;;;;;;;0.70;0.40;;;;;;;;;;5029086;28;20036;-85
2023/01/17 10:03:26;;;;;;;0.90;0.40;;;;;;;;;;5023351;28;20115;-84
2023/01/17 10:06:06;;;;;;;0.77;0.40;;;;;;;;;;5046155;28;20045;-84
2023/01/17 10:08:55;;;;;;;1.15;0.47;;;;;;;;;;5027633;28;20556;-85
2023/01/17 10:11:24;;;;;;;0.47;0.30;;;;;;;;;;5045507;28;20123;-85
2023/01/17 10:13:54;;;;;;;0.95;0.40;;;;;;;;;;5045536;28;20056;-84
2023/01/17 10:16:26;;;;;;;1.90;0.70;;;;;;;;;;5063034;28;20090;-84
2023/01/17 10:19:36;;;;;;;0.80;0.40;;;;;;;;;;5046638;28;20070;-85
2023/01/17 10:22:23;;;;;;;1.13;0.45;;;;;;;;;;5033476;28;20089;-84
2023/01/17 10:25:12;;;;;;;1.45;0.65;;;;;;;;;;5062609;28;20040;-85
2023/01/17 10:27:57;;;;;;;0.80;0.40;;;;;;;;;;5059711;28;20095;-85
2023/01/17 10:30:31;;;;;;;2.35;0.50;;;;;;;;;;5025701;28;20177;-84
2023/01/17 10:32:58;;;;;;;2.60;0.65;;;;;;;;;;5029681;28;20036;-85
2023/01/17 10:35:31;;;;;;;0.90;0.50;;;;;;;;;;5021370;28;20540;-86
2023/01/17 10:37:57;;;;;;;2.10;0.60;;;;;;;;;;5042684;28;20044;-85
2023/01/17 10:40:43;;;;;;;1.10;0.50;;;;;;;;;;5037581;28;20037;-85
2023/01/17 10:43:19;;;;;;;1.13;0.50;;;;;;;;;;5025908;28;20036;-85
2023/01/17 10:45:50;;;;;;;0.70;0.40;;;;;;;;;;5041444;28;20112;-84
2023/01/17 10:48:38;;;;;;;1.20;0.40;;;;;;;;;;5034024;28;20499;-83
2023/01/17 10:51:16;;;;;;;1.55;0.60;;;;;;;;;;5010662;28;20411;-83
2023/01/17 10:54:06;;;;;;;1.02;0.40;;;;;;;;;;5015089;28;20033;-85
2023/01/17 10:56:32;;;;;;;3.60;0.45;;;;;;;;;;5042156;28;20492;-85
2023/01/17 10:59:07;;;;;;;2.38;0.57;;;;;;;;;;5042298;28;20037;-85
2023/01/17 11:01:32;;;;;;;2.17;0.50;;;;;;;;;;5058159;28;20140;-84
2023/01/17 11:03:58;;;;;;;0.75;0.40;;;;;;;;;;5041897;28;20151;-86
2023/01/17 11:06:25;;;;;;;0.95;0.40;;;;;;;;;;5026730;28;20029;-86
2023/01/17 11:08:55;;;;;;;1.33;0.60;;;;;;;;;;5041761;28;20035;-84
2023/01/17 11:11:24;;;;;;;1.08;0.47;;;;;;;;;;5040988;28;20299;-85
2023/01/17 11:13:51;;;;;;;1.23;0.55;;;;;;;;;;5026258;28;20047;-85
2023/01/17 11:16:21;;;;;;;1.23;0.60;;;;;;;;;;5016069;28;20052;-85
2023/01/17 11:19:04;;;;;;;0.98;0.43;;;;;;;;;;5026208;28;20040;-85
2023/01/17 11:21:29;;;;;;;1.23;0.50;;;;;;;;;;5041317;28;20040;-85
2023/01/17 11:23:56;;;;;;;0.88;0.40;;;;;;;;;;5021326;28;20033;-85
2023/01/17 11:26:31;;;;;;;1.25;0.40;;;;;;;;;;5015262;28;20039;-85
2023/01/17 11:29:22;;;;;;;1.27;0.50;;;;;;;;;;5041442;28;20064;-85
2023/01/17 11:31:47;;;;;;;1.13;0.60;;;;;;;;;;5019273;28;20094;-85
2023/01/17 11:34:14;;;;;;;1.75;0.68;;;;;;;;;;5018023;28;20570;-85
2023/01/17 11:36:39;;;;;;;1.73;0.50;;;;;;;;;;5029772;28;20048;-85
2023/01/17 11:39:20;;;;;;;2.20;0.60;;;;;;;;;;5013392;28;20500;-85
2023/01/17 11:41:46;;;;;;;1.38;0.60;;;;;;;;;;5023898;28;20053;-85
2023/01/17 11:44:28;;;;;;;1.95;0.75;;;;;;;;;;5013038;28;20071;-85
2023/01/17 11:47:11;;;;;;;3.70;0.85;;;;;;;;;;5012133;28;20099;-85
2023/01/17 11:49:37;;;;;;;1.85;0.80;;;;;;;;;;5025808;28;20116;-84
2023/01/17 11:52:21;;;;;;;2.38;0.80;;;;;;;;;;5009302;28;20037;-84
2023/01/17 11:54:47;;;;;;;1.88;0.82;;;;;;;;;;5006951;28;20101;-84
2023/01/17 11:57:20;;;;;;;2.28;0.90;;;;;;;;;;5010943;28;20091;-85
2023/01/17 11:59:46;;;;;;;2.70;0.90;;;;;;;;;;5014015;28;20045;-84
2023/01/17 12:02:34;;;;;;;2.33;1.00;;;;;;;;;;5028291;28;20052;-85
2023/01/17 12:05:24;;;;;;;1.17;0.70;;;;;;;;;;5025081;28;20041;-85
2023/01/17 12:08:00;;;;;;;2.13;0.80;;;;;;;;;;5023036;28;20485;-86
2023/01/17 12:10:37;;;;;;;1.50;0.70;;;;;;;;;;5005856;28;20522;-85
2023/01/17 12:18:53;;;;;;;1.88;0.65;;;;;;;;;;5045895;28;20052;-85
2023/01/17 12:21:36;;;;;;;1.35;0.68;;;;;;;;;;5046004;28;20033;-85
2023/01/17 12:24:19;;;;;;;3.05;0.70;;;;;;;;;;5028490;28;20519;-86
2023/01/17 12:26:59;;;;;;;2.72;0.55;;;;;;;;;;5026891;28;20080;-86
2023/01/17 12:29:50;;;;;;;1.08;0.47;;;;;;;;;;5045173;28;20037;-85
2023/01/17 12:32:18;;;;;;;1.38;0.43;;;;;;;;;;5027347;28;20048;-86
2023/01/17 12:35:17;;;;;;;2.33;0.50;;;;;;;;;;5044347;28;20552;-86
2023/01/17 12:37:44;;;;;;;0.70;0.40;;;;;;;;;;5017464;28;20044;-85
2023/01/17 12:40:14;;;;;;;1.13;0.40;;;;;;;;;;5011603;28;20037;-86
2023/01/17 12:42:43;;;;;;;3.75;0.43;;;;;;;;;;5011447;28;20048;-86
2023/01/17 12:45:16;;;;;;;1.27;0.45;;;;;;;;;;5027993;28;20044;-86
2023/01/17 12:47:44;;;;;;;1.35;0.50;;;;;;;;;;5026073;28;20168;-84
2023/01/17 12:50:42;;;;;;;2.42;0.90;;;;;;;;;;5031587;28;20029;-85
2023/01/17 12:53:21;;;;;;;4.05;0.68;;;;;;;;;;5021478;28;20056;-85
2023/01/17 12:55:56;;;;;;;2.15;0.60;;;;;;;;;;5014679;28;20041;-85
2023/01/17 12:58:24;;;;;;;1.23;0.50;;;;;;;;;;5027661;28;20381;-85
2023/01/17 13:01:01;;;;;;;2.25;0.80;;;;;;;;;;4998051;28;20041;-83
2023/01/17 13:03:47;;;;;;;1.75;0.60;;;;;;;;;;5006163;28;20043;-83
2023/01/17 13:06:27;;;;;;;1.65;0.70;;;;;;;;;;5018024;28;20396;-83
2023/01/17 13:08:55;;;;;;;1.30;0.63;;;;;;;;;;5008748;28;20040;-84
2023/01/17 13:11:30;;;;;;;2.35;0.70;;;;;;;;;;5009968;28;20496;-83
2023/01/17 13:13:58;;;;;;;2.85;0.68;;;;;;;;;;5026619;28;20045;-84
2023/01/17 13:16:35;;;;;;;2.15;0.70;;;;;;;;;;5030293;28;20553;-84
2023/01/17 13:19:13;;;;;;;1.38;0.57;;;;;;;;;;5026117;28;20424;-84
2023/01/17 13:21:39;;;;;;;1.95;0.60;;;;;;;;;;5010187;28;20532;-85
2023/01/17 13:24:18;;;;;;;3.78;0.70;;;;;;;;;;5026350;28;20032;-85
2023/01/17 13:26:50;;;;;;;1.58;0.50;;;;;;;;;;5008664;28;20037;-84
2023/01/17 13:29:33;;;;;;;1.00;0.50;;;;;;;;;;5059034;28;20041;-84
2023/01/17 13:32:14;;;;;;;2.33;0.70;;;;;;;;;;5044174;28;20041;-84
2023/01/17 13:35:00;;;;;;;1.48;0.52;;;;;;;;;;5044646;28;20520;-84
2023/01/17 13:37:44;;;;;;;2.17;0.57;;;;;;;;;;5042425;28;20041;-84
2023/01/17 13:40:42;;;;;;;3.13;0.98;;;;;;;;;;5037364;28;20408;-84
2023/01/17 13:43:24;;;;;;;3.60;1.00;;;;;;;;;;5042125;28;20075;-85
2023/01/17 13:45:55;;;;;;;1.13;0.50;;;;;;;;;;5017175;28;20063;-85
2023/01/17 13:48:21;;;;;;;2.30;0.85;;;;;;;;;;5032733;28;20065;-84
2023/01/17 13:50:48;;;;;;;3.10;0.80;;;;;;;;;;5044013;28;20045;-84
2023/01/17 13:53:26;;;;;;;2.92;0.95;;;;;;;;;;5043158;28;20148;-84
2023/01/17 13:55:59;;;;;;;2.70;1.08;;;;;;;;;;5044045;28;20477;-84
2023/01/17 13:58:28;;;;;;;1.63;0.88;;;;;;;;;;5023303;28;20735;-84
2023/01/17 14:00:53;;;;;;;2.38;0.80;;;;;;;;;;5042532;28;20067;-84
2023/01/17 14:03:58;;;;;;;1.90;0.60;;;;;;;;;;5017511;28;20029;-85
2023/01/17 14:06:35;;;;;;;3.28;0.80;;;;;;;;;;5035185;28;20033;-85
2023/01/17 14:09:25;;;;;;;1.50;0.65;;;;;;;;;;5047327;28;21021;-86
2023/01/17 14:12:01;;;;;;;3.67;0.98;;;;;;;;;;5041250;28;20106;-84
2023/01/17 14:14:38;;;;;;;3.95;1.25;;;;;;;;;;5041878;28;20036;-86
2023/01/17 14:17:21;;;;;;;2.33;0.82;;;;;;;;;;5042118;28;20025;-85
2023/01/17 14:19:54;;;;;;;2.95;1.00;;;;;;;;;;5043975;28;20514;-86
2023/01/17 14:22:21;;;;;;;3.25;0.77;;;;;;;;;;5021870;28;20029;-85
2023/01/17 14:25:13;;;;;;;1.93;0.70;;;;;;;;;;5026257;28;20067;-85
2023/01/17 14:27:42;;;;;;;1.42;0.65;;;;;;;;;;5038716;28;20048;-85
2023/01/17 14:30:16;;;;;;;3.35;1.17;;;;;;;;;;5058698;28;20033;-86
2023/01/17 14:33:03;;;;;;;5.13;1.42;;;;;;;;;;5043848;28;20119;-85
2023/01/17 14:35:36;;;;;;;5.53;1.63;;;;;;;;;;5044942;28;20044;-86
2023/01/17 14:38:04;;;;;;;2.58;0.90;;;;;;;;;;5033080;28;20429;-86
2023/01/17 14:40:32;;;;;;;3.78;1.55;;;;;;;;;;5025637;28;20044;-86
2023/01/17 14:43:16;;;;;;;1.30;0.60;;;;;;;;;;5029462;28;20071;-86
2023/01/17 14:45:42;;;;;;;1.77;0.65;;;;;;;;;;5048322;28;20136;-85
2023/01/17 14:48:19;;;;;;;2.45;0.82;;;;;;;;;;5059531;28;20438;-86
2023/01/17 14:50:46;;;;;;;3.58;1.00;;;;;;;;;;5015886;28;20041;-86
2023/01/17 14:53:12;;;;;;;3.03;0.90;;;;;;;;;;5059334;28;20029;-85
2023/01/17 14:55:46;;;;;;;2.85;0.73;;;;;;;;;;5041839;28;20408;-85
2023/01/17 14:58:15;;;;;;;2.08;0.93;;;;;;;;;;5041737;28;20134;-85
2023/01/17 15:00:41;;;;;;;2.30;0.90;;;;;;;;;;5057407;28;20548;-86
2023/01/17 15:03:10;;;;;;;4.05;0.90;;;;;;;;;;5031964;28;20033;-86
2023/01/17 15:05:39;;;;;;;4.38;1.10;;;;;;;;;;5024969;28;20459;-86
2023/01/17 15:08:12;;;;;;;3.58;0.95;;;;;;;;;;5042383;28;20063;-86
2023/01/17 15:10:47;;;;;;;1.95;0.80;;;;;;;;;;5032711;28;20067;-86
2023/01/17 15:13:16;;;;;;;2.42;0.80;;;;;;;;;;5013128;28;20112;-85
2023/01/17 15:15:41;;;;;;;2.20;1.00;;;;;;;;;;5040662;28;20492;-85
2023/01/17 15:18:08;;;;;;;2.78;1.00;;;;;;;;;;5026019;28;20037;-86
2023/01/17 15:20:33;;;;;;;3.03;0.90;;;;;;;;;;5044369;28;20036;-87
2023/01/17 15:22:59;;;;;;;2.20;0.90;;;;;;;;;;5023753;28;20040;-85
2023/01/17 15:25:25;;;;;;;3.15;1.00;;;;;;;;;;5024960;28;20037;-85
2023/01/17 15:27:50;;;;;;;4.47;1.02;;;;;;;;;;5048109;28;20076;-86
2023/01/17 15:30:16;;;;;;;2.88;0.80;;;;;;;;;;5032244;28;20487;-86
2023/01/17 15:32:46;;;;;;;2.80;0.90;;;;;;;;;;5049083;28;20056;-85
2023/01/17 15:35:18;;;;;;;2.65;0.98;;;;;;;;;;5047314;28;20040;-84
2023/01/17 15:37:43;;;;;;;3.03;0.90;;;;;;;;;;5039961;28;20051;-84
2023/01/17 15:40:15;;;;;;;4.35;1.45;;;;;;;;;;5021864;28;20450;-85
2023/01/17 15:42:47;;;;;;;3.05;1.10;;;;;;;;;;5049764;28;20127;-85
2023/01/17 15:45:20;;;;;;;2.72;1.00;;;;;;;;;;5041226;28;20561;-84
2023/01/17 15:47:47;;;;;;;2.83;1.08;;;;;;;;;;5032413;28;20064;-85
2023/01/17 15:50:19;;;;;;;5.32;1.55;;;;;;;;;;5046947;28;20510;-85
2023/01/17 15:52:53;;;;;;;4.32;1.55;;;;;;;;;;5066767;28;20051;-84
2023/01/17 15:55:22;;;;;;;4.97;1.10;;;;;;;;;;5051115;28;20044;-84
2023/01/17 15:57:47;;;;;;;2.70;0.98;;;;;;;;;;5048656;28;20102;-85
2023/01/17 16:00:17;;;;;;;2.60;0.90;;;;;;;;;;5030856;28;20770;-84
2023/01/17 16:02:54;;;;;;;3.40;1.10;;;;;;;;;;5050397;28;20557;-84
2023/01/17 16:05:29;;;;;;;5.28;1.40;;;;;;;;;;5047548;28;20039;-85
2023/01/17 16:08:01;;;;;;;3.72;1.20;;;;;;;;;;5066217;28;20045;-85
2023/01/17 16:10:30;;;;;;;2.95;1.23;;;;;;;;;;5049424;28;20040;-84
2023/01/17 16:12:56;;;;;;;4.25;1.33;;;;;;;;;;5031540;28;20440;-84
2023/01/17 16:15:23;;;;;;;3.20;1.00;;;;;;;;;;5043504;28;20399;-84
2023/01/17 16:18:10;;;;;;;4.65;1.40;;;;;;;;;;5038448;28;20090;-85
2023/01/17 16:20:38;;;;;;;2.55;1.25;;;;;;;;;;5001856;28;20110;-85
2023/01/17 16:23:04;;;;;;;2.92;1.10;;;;;;;;;;4983850;28;20473;-85
2023/01/17 16:25:31;;;;;;;5.78;1.58;;;;;;;;;;4989049;28;20042;-84
2023/01/17 16:27:57;;;;;;;2.38;1.15;;;;;;;;;;4985858;28;20049;-85
2023/01/17 16:30:23;;;;;;;4.68;1.20;;;;;;;;;;4999350;28;20041;-84
2023/01/17 16:32:49;;;;;;;2.50;1.10;;;;;;;;;;4992992;28;20045;-85